Climatologie pour Saint-Brevin les Pins
Jour • Résumé pour janvier 25, 2017 Système :  Métrique    Anglais   Mixte
« - 1 jour
+ 1 jour »
Jour Semaine Mois Année Personnalisé
  Maximum : Minimum : Moyenne :
Température sous abri : -17.8 °C -20.7 °C -18.3 °C
Point de rosée : -17.8 °C -21.1 °C -19.3 °C
Humidité : Humidity % 75 % 88 %
Vitesse du vent : 0 km/h 0 km/h 6.8 km/h
Rafale : 0 km/h - -
Direction :- - ESE
Pression : 0 hPa 34625.2 hPa -
Précipitations : 0 mm    
Historical Graphs
 
 
Tableau de données pour janvier 25, 2017
Heure Tempé Pt rosée Pression Vent Vitesse Rafale Humidité Taux pluie (/hr) Soleil
-17.8 °C -17.8 °C 0 hPa Calm     Humidity % 0 mm SolarRadiationWatts/m^2 W/m2 Conditions
00:00 -19.4 °C -19.9 °C 34831.8 hPa Calm     94 % 0 mm 0 W/m2
00:10 -19.6 °C -20 °C 34831.8 hPa Calm     94 % 0 mm 0 W/m2
00:15 -19.6 °C -20.1 °C 34831.8 hPa Calm     94 % 0 mm 0 W/m2
00:20 -19.7 °C -20.2 °C 34831.8 hPa Calm     93 % 0 mm 0 W/m2
00:25 -19.7 °C -20.1 °C 34831.8 hPa Calm     94 % 0 mm 0 W/m2
00:30 -19.6 °C -20.1 °C 34831.8 hPa Calm     94 % 0 mm 0 W/m2
00:35 -19.6 °C -20.1 °C 34831.8 hPa Calm     94 % 0 mm 0 W/m2
00:40 -19.7 °C -20.2 °C 34831.8 hPa Calm     94 % 0 mm 0 W/m2
00:45 -19.8 °C -20.2 °C 34818.2 hPa Calm     94 % 0 mm 0 W/m2
00:50 -19.6 °C -20.1 °C 34818.2 hPa Calm     94 % 0 mm 0 W/m2
00:55 -19.7 °C -20.1 °C 34818.2 hPa Calm     94 % 0 mm 0 W/m2
01:00 -19.7 °C -20.2 °C 34818.2 hPa Calm     94 % 0 mm 0 W/m2
01:10 -19.7 °C -20.2 °C 34818.2 hPa Calm     94 % 0 mm 0 W/m2
01:15 -19.7 °C -20.1 °C 34818.2 hPa Calm     94 % 0 mm 0 W/m2
01:20 -19.7 °C -20.2 °C 34818.2 hPa Calm     94 % 0 mm 0 W/m2
01:25 -19.8 °C -20.3 °C 34818.2 hPa Calm     94 % 0 mm 0 W/m2
01:30 -19.8 °C -20.3 °C 34818.2 hPa Calm     94 % 0 mm 0 W/m2
01:35 -19.8 °C -20.3 °C 34818.2 hPa Calm   2.6 km/h 94 % 0 mm 0 W/m2
01:40 -19.8 °C -20.3 °C 34818.2 hPa Calm   2.6 km/h 94 % 0 mm 0 W/m2
01:45 -19.9 °C -20.3 °C 34818.2 hPa Calm     94 % 0 mm 0 W/m2
01:50 -19.9 °C -20.3 °C 34818.2 hPa Calm     94 % 0 mm 0 W/m2
01:55 -19.9 °C -20.4 °C 34808.1 hPa Calm     94 % 0 mm 0 W/m2
02:00 -20 °C -20.4 °C 34808.1 hPa Calm     94 % 0 mm 0 W/m2
02:05 -20 °C -20.4 °C 34808.1 hPa Calm     94 % 0 mm 0 W/m2
02:10 -20 °C -20.4 °C 34808.1 hPa Calm     94 % 0 mm 0 W/m2
02:15 -20.1 °C -20.6 °C 34808.1 hPa Calm     94 % 0 mm 0 W/m2
02:20 -20.1 °C -20.6 °C 34808.1 hPa Calm     94 % 0 mm 0 W/m2
02:25 -20.1 °C -20.6 °C 34808.1 hPa Calm     94 % 0 mm 0 W/m2
02:30 -20.1 °C -20.5 °C 34808.1 hPa Calm     94 % 0 mm 0 W/m2
02:35 -20.1 °C -20.5 °C 34808.1 hPa Calm     94 % 0 mm 0 W/m2
02:40 -20.1 °C -20.5 °C 34797.9 hPa Calm     94 % 0 mm 0 W/m2
02:45 -20.1 °C -20.5 °C 34797.9 hPa Calm   2.6 km/h 94 % 0 mm 0 W/m2
02:50 -20.1 °C -20.6 °C 34797.9 hPa Calm   2.6 km/h 94 % 0 mm 0 W/m2
02:55 -20.1 °C -20.5 °C 34808.1 hPa Calm     94 % 0 mm 0 W/m2
03:00 -20.1 °C -20.6 °C 34797.9 hPa Calm     94 % 0 mm 0 W/m2
03:05 -20.1 °C -20.6 °C 34797.9 hPa Calm     94 % 0 mm 0 W/m2
03:10 -20.2 °C -20.7 °C 34797.9 hPa Calm     94 % 0 mm 0 W/m2
03:15 -20.1 °C -20.6 °C 34808.1 hPa Calm   2.6 km/h 94 % 0 mm 0 W/m2
03:20 -20.1 °C -20.5 °C 34808.1 hPa Calm   5.1 km/h 94 % 0 mm 0 W/m2
03:25 -20.1 °C -20.6 °C 34797.9 hPa Calm   5.1 km/h 94 % 0 mm 0 W/m2
03:30 -20.1 °C -20.6 °C 34808.1 hPa Calm     94 % 0 mm 0 W/m2
03:35 -20.1 °C -20.5 °C 34808.1 hPa Calm     94 % 0 mm 0 W/m2
03:40 -20.1 °C -20.5 °C 34808.1 hPa Calm   2.6 km/h 94 % 0 mm 0 W/m2
03:45 -20.2 °C -20.6 °C 34797.9 hPa Calm   2.6 km/h 94 % 0 mm 0 W/m2
03:50 -20.1 °C -20.6 °C 34797.9 hPa Calm   2.6 km/h 94 % 0 mm 0 W/m2
03:55 -20.2 °C -20.6 °C 34797.9 hPa Calm   2.6 km/h 94 % 0 mm 0 W/m2
04:00 -20.1 °C -20.6 °C 34797.9 hPa Calm     94 % 0 mm 0 W/m2
04:05 -20.2 °C -20.6 °C 34797.9 hPa Calm   2.6 km/h 94 % 0 mm 0 W/m2
04:10 -20.1 °C -20.6 °C 34797.9 hPa Calm   2.6 km/h 94 % 0 mm 0 W/m2
04:15 -20.2 °C -20.7 °C 34797.9 hPa Calm     94 % 0 mm 0 W/m2
04:20 -20.3 °C -20.8 °C 34797.9 hPa Calm     94 % 0 mm 0 W/m2
04:25 -20.4 °C -20.8 °C 34797.9 hPa Calm     94 % 0 mm 0 W/m2
04:30 -20.4 °C -20.8 °C 34784.4 hPa Calm     94 % 0 mm 0 W/m2
04:35 -20.4 °C -20.9 °C 34797.9 hPa Calm     94 % 0 mm 0 W/m2
04:40 -20.4 °C -20.9 °C 34784.4 hPa Calm     94 % 0 mm 0 W/m2
04:45 -20.5 °C -21 °C 34784.4 hPa Calm     94 % 0 mm 0 W/m2
04:50 -20.5 °C -21 °C 34784.4 hPa Calm     94 % 0 mm 0 W/m2
04:55 -20.6 °C -21 °C 34784.4 hPa Calm     94 % 0 mm 0 W/m2
05:00 -20.4 °C -20.8 °C 34784.4 hPa Calm     95 % 0 mm 0 W/m2
05:10 -20.4 °C -20.9 °C 34784.4 hPa Calm     94 % 0 mm 0 W/m2
05:15 -20.4 °C -20.9 °C 34784.4 hPa Calm     94 % 0 mm 0 W/m2
05:20 -20.4 °C -20.9 °C 34784.4 hPa Calm     94 % 0 mm 0 W/m2
05:25 -20.4 °C -20.8 °C 34784.4 hPa Calm     95 % 0 mm 0 W/m2
05:30 -20.4 °C -20.7 °C 34784.4 hPa Calm     95 % 0 mm 0 W/m2
05:35 -20.3 °C -20.7 °C 34784.4 hPa Calm     95 % 0 mm 0 W/m2
05:40 -20.3 °C -20.8 °C 34784.4 hPa Calm     94 % 0 mm 0 W/m2
05:45 -20.3 °C -20.7 °C 34784.4 hPa Calm     95 % 0 mm 0 W/m2
05:50 -20.4 °C -20.8 °C 34784.4 hPa Calm     94 % 0 mm 0 W/m2
05:55 -20.4 °C -20.8 °C 34784.4 hPa Calm     95 % 0 mm 0 W/m2
06:00 -20.4 °C -20.7 °C 34774.2 hPa Calm     95 % 0 mm 0 W/m2
06:05 -20.3 °C -20.7 °C 34774.2 hPa Calm     95 % 0 mm 0 W/m2
06:10 -20.3 °C -20.7 °C 34774.2 hPa Calm     95 % 0 mm 0 W/m2
06:15 -20.4 °C -20.7 °C 34774.2 hPa Calm     95 % 0 mm 0 W/m2
06:20 -20.4 °C -20.7 °C 34774.2 hPa Calm   2.6 km/h 95 % 0 mm 0 W/m2
06:25 -20.3 °C -20.7 °C 34774.2 hPa Calm   2.6 km/h 95 % 0 mm 0 W/m2
06:30 -20.2 °C -20.6 °C 34774.2 hPa Calm   2.6 km/h 95 % 0 mm 0 W/m2
06:35 -20.2 °C -20.6 °C 34774.2 hPa Calm   5.1 km/h 95 % 0 mm 0 W/m2
06:40 -20.3 °C -20.7 °C 34774.2 hPa Calm   5.1 km/h 95 % 0 mm 0 W/m2
06:45 -20.2 °C -20.6 °C 34774.2 hPa Calm   2.6 km/h 95 % 0 mm 0 W/m2
06:50 -20.3 °C -20.7 °C 34774.2 hPa Calm   2.6 km/h 95 % 0 mm 0 W/m2
06:55 -20.4 °C -20.7 °C 34774.2 hPa Calm   2.6 km/h 95 % 0 mm 0 W/m2
07:00 -20.4 °C -20.8 °C 34774.2 hPa Calm     95 % 0 mm 0 W/m2
07:05 -20.4 °C -20.8 °C 34774.2 hPa Calm     95 % 0 mm 0 W/m2
07:10 -20.5 °C -20.9 °C 34774.2 hPa Calm     95 % 0 mm 0 W/m2
07:15 -20.5 °C -20.9 °C 34774.2 hPa Calm     95 % 0 mm 0 W/m2
07:20 -20.6 °C -21 °C 34774.2 hPa Calm   2.6 km/h 95 % 0 mm 0 W/m2
07:25 -20.7 °C -21.1 °C 34774.2 hPa Calm   2.6 km/h 94 % 0 mm 0 W/m2
07:30 -20.7 °C -21 °C 34774.2 hPa Calm     95 % 0 mm 0 W/m2
07:35 -20.7 °C -21.1 °C 34774.2 hPa Calm     95 % 0 mm 0 W/m2
07:40 -20.6 °C -20.9 °C 34760.7 hPa Calm     95 % 0 mm 0 W/m2
07:45 -20.5 °C -20.9 °C 34760.7 hPa Calm   2.6 km/h 95 % 0 mm 0 W/m2
07:50 -20.6 °C -20.9 °C 34760.7 hPa Calm   2.6 km/h 95 % 0 mm 0 W/m2
07:55 -20.5 °C -20.9 °C 34760.7 hPa Calm     95 % 0 mm 0 W/m2
08:00 -20.5 °C -20.9 °C 34760.7 hPa Calm   2.6 km/h 95 % 0 mm 0 W/m2
08:05 -20.3 °C -20.7 °C 34760.7 hPa Calm   2.6 km/h 95 % 0 mm 0 W/m2
08:10 -20.4 °C -20.8 °C 34774.2 hPa Calm   2.6 km/h 95 % 0 mm 0 W/m2
08:15 -20.4 °C -20.7 °C 34774.2 hPa Calm   2.6 km/h 95 % 0 mm 0 W/m2
08:20 -20.4 °C -20.8 °C 34774.2 hPa Calm   2.6 km/h 95 % 0 mm 0 W/m2
08:25 -20.3 °C -20.7 °C 34774.2 hPa Calm   2.6 km/h 95 % 0 mm 0 W/m2
08:30 -20.1 °C -20.4 °C 34774.2 hPa Calm   2.6 km/h 96 % 0 mm 0 W/m2
08:35 -20.2 °C -20.6 °C 34774.2 hPa Calm   2.6 km/h 95 % 0 mm 0 W/m2
08:40 -20.3 °C -20.7 °C 34774.2 hPa Calm   5.1 km/h 95 % 0 mm 0 W/m2
08:45 -20.3 °C -20.7 °C 34774.2 hPa Calm   5.1 km/h 95 % 0 mm 0 W/m2
08:50 -20.2 °C -20.6 °C 34774.2 hPa NE 5.1 km/h 7.7 km/h 95 % 0 mm 5 W/m2
08:55 -19.9 °C -20.3 °C 34774.2 hPa ESE 7.7 km/h 7.7 km/h 95 % 0 mm 9 W/m2
09:00 -19.6 °C -19.9 °C 34774.2 hPa ESE 10.3 km/h 12.9 km/h 96 % 0 mm 11 W/m2
09:05 -19.3 °C -19.7 °C 34784.4 hPa ESE 5.1 km/h 15.6 km/h 96 % 0 mm 14 W/m2
09:10 -19.2 °C -19.5 °C 34774.2 hPa ESE 7.7 km/h 15.6 km/h 96 % 0 mm 18 W/m2
09:15 -19.1 °C -19.4 °C 34774.2 hPa ESE 5.1 km/h 18.2 km/h 95 % 0 mm 19 W/m2
09:20 -18.9 °C -19.3 °C 34774.2 hPa ESE 2.6 km/h 23.3 km/h 95 % 0 mm 21 W/m2
09:25 -18.7 °C -19.1 °C 34774.2 hPa ESE 5.1 km/h 23.3 km/h 95 % 0 mm 26 W/m2
09:30 -18.6 °C -18.9 °C 34774.2 hPa ESE 5.1 km/h 18.2 km/h 95 % 0 mm 28 W/m2
09:35 -18.4 °C -18.7 °C 34774.2 hPa ESE 12.9 km/h 15.6 km/h 96 % 0 mm 28 W/m2
09:40 -18.4 °C -18.8 °C 34774.2 hPa ESE 5.1 km/h 15.6 km/h 95 % 0 mm 32 W/m2
09:45 -18.3 °C -18.7 °C 34774.2 hPa East 5.1 km/h 15.6 km/h 95 % 0 mm 42 W/m2
09:50 -18.2 °C -18.4 °C 34774.2 hPa ESE 5.1 km/h 18.2 km/h 96 % 0 mm 39 W/m2
09:55 -17.9 °C -18.3 °C 34774.2 hPa ESE 10.3 km/h 23.3 km/h 96 % 0 mm 42 W/m2
10:00 -17.9 °C -18.2 °C 34774.2 hPa ESE 20.8 km/h 28.5 km/h 96 % 0 mm 54 W/m2
10:05 -17.7 °C -18.1 °C 34774.2 hPa ESE 20.8 km/h 28.5 km/h 96 % 0 mm 53 W/m2
10:10 -17.7 °C -18 °C 34774.2 hPa ESE 5.1 km/h 25.9 km/h 96 % 0 mm 53 W/m2
10:15 -17.7 °C -18.1 °C 34774.2 hPa East 18.2 km/h 28.5 km/h 95 % 0 mm 49 W/m2
10:20 -17.7 °C -17.9 °C 34774.2 hPa ESE 12.9 km/h 28.5 km/h 96 % 0 mm 62 W/m2
10:25 -17.7 °C -17.9 °C 34774.2 hPa ESE 18.2 km/h 28.5 km/h 96 % 0 mm 58 W/m2
10:30 -17.7 °C -17.9 °C 34774.2 hPa East 20.8 km/h 31.1 km/h 96 % 0 mm 72 W/m2
10:35 -17.7 °C -18.1 °C 34774.2 hPa East 7.7 km/h 31.1 km/h 95 % 0 mm 65 W/m2
10:40 -17.7 °C -18.1 °C 34774.2 hPa ESE 12.9 km/h 31.1 km/h 95 % 0 mm 69 W/m2
10:45 -17.7 °C -18.1 °C 34774.2 hPa East 20.8 km/h 41.4 km/h 95 % 0 mm 77 W/m2
10:50 -17.7 °C -18.1 °C 34774.2 hPa ENE 12.9 km/h 41.4 km/h 95 % 0 mm 77 W/m2
10:55 -17.7 °C -18.1 °C 34774.2 hPa ENE 10.3 km/h 38.8 km/h 95 % 0 mm 67 W/m2
11:00 -17.7 °C -18 °C 34774.2 hPa SE 10.3 km/h 25.9 km/h 96 % 0 mm 70 W/m2
11:05 -17.7 °C -18.1 °C 34784.4 hPa ESE 20.8 km/h 33.6 km/h 95 % 0 mm 72 W/m2
11:10 -17.6 °C -18 °C 34784.4 hPa East 5.1 km/h 33.6 km/h 95 % 0 mm 93 W/m2
11:15 -17.6 °C -17.9 °C 34774.2 hPa SE 20.8 km/h 31.1 km/h 96 % 0 mm 86 W/m2
11:20 -17.6 °C -17.9 °C 34784.4 hPa ESE 10.3 km/h 36.2 km/h 96 % 0 mm 90 W/m2
11:25 -17.6 °C -17.9 °C 34784.4 hPa ESE 12.9 km/h 36.2 km/h 95 % 0 mm 98 W/m2
11:30 -17.6 °C -17.9 °C 34784.4 hPa ESE 12.9 km/h 28.5 km/h 95 % 0 mm 88 W/m2
11:35 -17.6 °C -17.9 °C 34784.4 hPa ESE 12.9 km/h 25.9 km/h 95 % 0 mm 95 W/m2
11:40 -17.4 °C -17.9 °C 34774.2 hPa ESE 7.7 km/h 25.9 km/h 95 % 0 mm 100 W/m2
11:45 -17.4 °C -17.8 °C 34774.2 hPa ESE 7.7 km/h 25.9 km/h 95 % 0 mm 95 W/m2
11:50 -17.4 °C -17.8 °C 34774.2 hPa SE 10.3 km/h 25.9 km/h 95 % 0 mm 97 W/m2
11:55 -17.4 °C -17.8 °C 34774.2 hPa ESE 28.5 km/h 28.5 km/h 95 % 0 mm 109 W/m2
12:00 -17.4 °C -17.8 °C 34774.2 hPa East 12.9 km/h 28.5 km/h 95 % 0 mm 102 W/m2
12:05 -17.3 °C -17.7 °C 34774.2 hPa ESE 10.3 km/h 28.5 km/h 95 % 0 mm 156 W/m2
12:10 -17.2 °C -17.6 °C 34760.7 hPa East 2.6 km/h 28.5 km/h 95 % 0 mm 144 W/m2
12:15 -17.1 °C -17.6 °C 34760.7 hPa East 15.6 km/h 28.5 km/h 94 % 0 mm 160 W/m2
12:20 -17.1 °C -17.6 °C 34760.7 hPa East 18.2 km/h 25.9 km/h 94 % 0 mm 167 W/m2
12:25 -17.2 °C -17.7 °C 34760.7 hPa East 18.2 km/h 25.9 km/h 93 % 0 mm 163 W/m2
12:30 -16.9 °C -17.5 °C 34760.7 hPa ENE 10.3 km/h 25.9 km/h 93 % 0 mm 258 W/m2
12:35 -16.7 °C -17.5 °C 34750.5 hPa East 20.8 km/h 31.1 km/h 90 % 0 mm 132 W/m2
12:40 -16.9 °C -17.8 °C 34750.5 hPa East 5.1 km/h 31.1 km/h 89 % 0 mm 178 W/m2
12:45 -16.6 °C -17.3 °C 34750.5 hPa ENE 7.7 km/h 23.3 km/h 91 % 0 mm 492 W/m2
12:50 -16.2 °C -17.3 °C 34750.5 hPa East 15.6 km/h 23.3 km/h 86 % 0 mm 461 W/m2
12:55 -15.9 °C -17.2 °C 34740.4 hPa East 7.7 km/h 23.3 km/h 85 % 0 mm 506 W/m2
13:00 -15.8 °C -17.2 °C 34740.4 hPa East 7.7 km/h 25.9 km/h 84 % 0 mm 462 W/m2
13:05 -16 °C -17.6 °C 34740.4 hPa ENE 10.3 km/h 25.9 km/h 81 % 0 mm 151 W/m2
13:10 -16.4 °C -17.9 °C 34740.4 hPa East 15.6 km/h 25.9 km/h 83 % 0 mm 237 W/m2
13:15 -16.1 °C -17.4 °C 34740.4 hPa SE 15.6 km/h 23.3 km/h 84 % 0 mm 452 W/m2
13:20 -15.8 °C -17.5 °C 34726.8 hPa SE 18.2 km/h 23.3 km/h 81 % 0 mm 441 W/m2
13:25 -15.7 °C -17.4 °C 34726.8 hPa ENE 18.2 km/h 23.3 km/h 80 % 0 mm 439 W/m2
13:30 -15.7 °C -17.4 °C 34726.8 hPa ESE 12.9 km/h 23.3 km/h 80 % 0 mm 397 W/m2
13:35 -15.5 °C -17.4 °C 34716.7 hPa SE 20.8 km/h 28.5 km/h 79 % 0 mm 489 W/m2
13:40 -15.4 °C -17.4 °C 34716.7 hPa ENE 12.9 km/h 28.5 km/h 78 % 0 mm 445 W/m2
13:45 -15.7 °C -17.6 °C 34716.7 hPa ENE 5.1 km/h 33.6 km/h 78 % 0 mm 239 W/m2
13:50 -15.9 °C -17.7 °C 34716.7 hPa East 10.3 km/h 33.6 km/h 80 % 0 mm 193 W/m2
13:55 -16 °C -17.7 °C 34716.7 hPa ENE 10.3 km/h 20.8 km/h 80 % 0 mm 142 W/m2
14:00 -16.1 °C -17.6 °C 34703.1 hPa ENE 2.6 km/h 20.8 km/h 82 % 0 mm 188 W/m2
14:05 -15.9 °C -17.7 °C 34703.1 hPa ENE 5.1 km/h 12.9 km/h 80 % 0 mm 204 W/m2
14:10 -15.9 °C -17.7 °C 34703.1 hPa East 18.2 km/h 18.2 km/h 80 % 0 mm 171 W/m2
14:15 -16 °C -17.6 °C 34693 hPa ENE 15.6 km/h 20.8 km/h 81 % 0 mm 190 W/m2
14:20 -16.1 °C -17.8 °C 34693 hPa ENE 7.7 km/h 20.8 km/h 80 % 0 mm 202 W/m2
14:25 -16.1 °C -17.8 °C 34693 hPa ESE 18.2 km/h 20.8 km/h 80 % 0 mm 202 W/m2
14:30 -15.9 °C -17.6 °C 34693 hPa NE 12.9 km/h 20.8 km/h 81 % 0 mm 223 W/m2
14:35 -15.9 °C -17.8 °C 34693 hPa ENE 12.9 km/h 23.3 km/h 79 % 0 mm 171 W/m2
14:40 -16.1 °C -17.7 °C 34693 hPa ENE 23.3 km/h 23.3 km/h 81 % 0 mm 174 W/m2
14:45 -16 °C -17.6 °C 34682.8 hPa ENE 12.9 km/h 23.3 km/h 81 % 0 mm 160 W/m2
14:50 -16 °C -17.8 °C 34682.8 hPa NNE 15.6 km/h 23.3 km/h 80 % 0 mm 151 W/m2
14:55 -16 °C -17.8 °C 34682.8 hPa ENE 18.2 km/h 23.3 km/h 80 % 0 mm 153 W/m2
15:00 -15.9 °C -17.7 °C 34682.8 hPa NE 18.2 km/h 23.3 km/h 80 % 0 mm 246 W/m2
15:05 -15.8 °C -17.7 °C 34682.8 hPa ENE 5.1 km/h 20.8 km/h 79 % 0 mm 202 W/m2
15:10 -15.8 °C -17.7 °C 34669.3 hPa Calm   20.8 km/h 79 % 0 mm 188 W/m2
15:15 -15.8 °C -17.6 °C 34669.3 hPa East 18.2 km/h 20.8 km/h 79 % 0 mm 148 W/m2
15:20 -15.8 °C -17.8 °C 34669.3 hPa ENE 7.7 km/h 23.3 km/h 77 % 0 mm 190 W/m2
15:25 -15.8 °C -17.8 °C 34669.3 hPa East 15.6 km/h 23.3 km/h 77 % 0 mm 135 W/m2
15:30 -15.8 °C -17.7 °C 34669.3 hPa NE 18.2 km/h 18.2 km/h 78 % 0 mm 128 W/m2
15:35 -15.9 °C -17.9 °C 34669.3 hPa ENE 10.3 km/h 23.3 km/h 77 % 0 mm 132 W/m2
15:40 -15.9 °C -17.9 °C 34669.3 hPa East 15.6 km/h 23.3 km/h 77 % 0 mm 125 W/m2
15:45 -15.8 °C -17.9 °C 34669.3 hPa NE 15.6 km/h 25.9 km/h 76 % 0 mm 239 W/m2
15:50 -15.8 °C -18 °C 34669.3 hPa ENE 18.2 km/h 25.9 km/h 75 % 0 mm 93 W/m2
15:55 -16 °C -18.1 °C 34669.3 hPa East 18.2 km/h 25.9 km/h 76 % 0 mm 111 W/m2
16:00 -16.1 °C -18.1 °C 34669.3 hPa East 7.7 km/h 20.8 km/h 77 % 0 mm 95 W/m2
16:10 -16.1 °C -18.1 °C 34659.1 hPa ENE 10.3 km/h 20.8 km/h 77 % 0 mm 155 W/m2
16:15 -15.9 °C -18.1 °C 34659.1 hPa ENE 7.7 km/h 20.8 km/h 76 % 0 mm 169 W/m2
16:20 -15.9 °C -18.1 °C 34669.3 hPa ESE 7.7 km/h 20.8 km/h 76 % 0 mm 155 W/m2
16:25 -15.9 °C -18.1 °C 34669.3 hPa East 20.8 km/h 23.3 km/h 75 % 0 mm 132 W/m2
16:30 -15.9 °C -18.2 °C 34669.3 hPa East 7.7 km/h 23.3 km/h 75 % 0 mm 77 W/m2
16:40 -16.2 °C -18.4 °C 34659.1 hPa ESE 2.6 km/h 20.8 km/h 75 % 0 mm 70 W/m2
16:50 -16.3 °C -18.4 °C 34659.1 hPa East 12.9 km/h 23.3 km/h 76 % 0 mm 56 W/m2
16:55 -16.3 °C -18.5 °C 34659.1 hPa East 12.9 km/h 20.8 km/h 76 % 0 mm 56 W/m2
17:00 -16.4 °C -18.5 °C 34659.1 hPa SE 10.3 km/h 18.2 km/h 76 % 0 mm 47 W/m2
17:05 -16.4 °C -18.6 °C 34659.1 hPa East 5.1 km/h 18.2 km/h 76 % 0 mm 49 W/m2
17:10 -16.4 °C -18.4 °C 34659.1 hPa ESE 7.7 km/h 20.8 km/h 77 % 0 mm 47 W/m2
17:15 -16.5 °C -18.5 °C 34659.1 hPa SE 7.7 km/h 20.8 km/h 77 % 0 mm 51 W/m2
17:20 -16.6 °C -18.6 °C 34659.1 hPa ESE 10.3 km/h 18.2 km/h 77 % 0 mm 39 W/m2
17:25 -16.6 °C -18.6 °C 34659.1 hPa ESE 15.6 km/h 23.3 km/h 77 % 0 mm 26 W/m2
17:30 -16.8 °C -18.8 °C 34659.1 hPa ESE 10.3 km/h 23.3 km/h 77 % 0 mm 23 W/m2
17:35 -16.8 °C -18.8 °C 34659.1 hPa ESE 2.6 km/h 18.2 km/h 78 % 0 mm 21 W/m2
17:40 -17 °C -18.9 °C 34659.1 hPa ESE 2.6 km/h 12.9 km/h 78 % 0 mm 12 W/m2
17:45 -17.1 °C -18.9 °C 34659.1 hPa ESE 5.1 km/h 12.9 km/h 79 % 0 mm 11 W/m2
17:50 -17.2 °C -18.9 °C 34659.1 hPa ESE 5.1 km/h 12.9 km/h 80 % 0 mm 9 W/m2
17:55 -17.3 °C -19.1 °C 34659.1 hPa ESE 5.1 km/h 12.9 km/h 80 % 0 mm 5 W/m2
18:00 -17.4 °C -19 °C 34659.1 hPa ESE 7.7 km/h 12.9 km/h 81 % 0 mm 0 W/m2
18:05 -17.5 °C -19.1 °C 34659.1 hPa Calm   10.3 km/h 81 % 0 mm 0 W/m2
18:10 -17.7 °C -19.2 °C 34659.1 hPa ESE 2.6 km/h 10.3 km/h 82 % 0 mm 0 W/m2
18:15 -17.8 °C -19.2 °C 34659.1 hPa ESE 2.6 km/h 10.3 km/h 83 % 0 mm 0 W/m2
18:20 -17.8 °C -19.2 °C 34659.1 hPa ESE 2.6 km/h 10.3 km/h 83 % 0 mm 0 W/m2
18:25 -17.9 °C -19.2 °C 34659.1 hPa ESE 5.1 km/h 10.3 km/h 84 % 0 mm 0 W/m2
18:30 -18 °C -19.3 °C 34659.1 hPa ESE 5.1 km/h 10.3 km/h 84 % 0 mm 0 W/m2
18:35 -18 °C -19.3 °C 34659.1 hPa Calm   10.3 km/h 84 % 0 mm 0 W/m2
18:40 -18 °C -19.3 °C 34659.1 hPa Calm   7.7 km/h 85 % 0 mm 0 W/m2
18:45 -17.9 °C -19.2 °C 34659.1 hPa Calm   7.7 km/h 85 % 0 mm 0 W/m2
18:50 -17.9 °C -19.2 °C 34659.1 hPa Calm   7.7 km/h 85 % 0 mm 0 W/m2
18:55 -17.9 °C -19.2 °C 34659.1 hPa SE 5.1 km/h 7.7 km/h 85 % 0 mm 0 W/m2
19:00 -17.9 °C -19.1 °C 34659.1 hPa East 7.7 km/h 12.9 km/h 85 % 0 mm 0 W/m2
19:05 -17.7 °C -19 °C 34659.1 hPa SSE 5.1 km/h 12.9 km/h 85 % 0 mm 0 W/m2
19:10 -17.7 °C -19 °C 34659.1 hPa SE 10.3 km/h 12.9 km/h 84 % 0 mm 0 W/m2
19:15 -17.6 °C -18.9 °C 34659.1 hPa SE 2.6 km/h 10.3 km/h 84 % 0 mm 0 W/m2
19:20 -17.7 °C -19.1 °C 34659.1 hPa SE 2.6 km/h 10.3 km/h 83 % 0 mm 0 W/m2
19:25 -17.7 °C -19 °C 34659.1 hPa SSE 7.7 km/h 10.3 km/h 84 % 0 mm 0 W/m2
19:30 -17.6 °C -19.1 °C 34659.1 hPa ESE 10.3 km/h 12.9 km/h 83 % 0 mm 0 W/m2
19:35 -17.6 °C -19.1 °C 34659.1 hPa SE 7.7 km/h 12.9 km/h 83 % 0 mm 0 W/m2
19:40 -17.6 °C -19 °C 34645.6 hPa ESE 7.7 km/h 18.2 km/h 83 % 0 mm 0 W/m2
19:45 -17.6 °C -19.1 °C 34645.6 hPa ENE 5.1 km/h 23.3 km/h 82 % 0 mm 0 W/m2
19:50 -17.5 °C -19.1 °C 34645.6 hPa ESE 20.8 km/h 23.3 km/h 81 % 0 mm 0 W/m2
19:55 -17.4 °C -19.1 °C 34645.6 hPa SE 12.9 km/h 20.8 km/h 81 % 0 mm 0 W/m2
20:00 -17.4 °C -19.1 °C 34645.6 hPa ESE 18.2 km/h 20.8 km/h 81 % 0 mm 0 W/m2
20:05 -17.4 °C -19.1 °C 34645.6 hPa ESE 7.7 km/h 25.9 km/h 81 % 0 mm 0 W/m2
20:10 -17.4 °C -19.1 °C 34645.6 hPa ESE 5.1 km/h 25.9 km/h 81 % 0 mm 0 W/m2
20:15 -17.4 °C -19.1 °C 34645.6 hPa ESE 23.3 km/h 23.3 km/h 81 % 0 mm 0 W/m2
20:20 -17.4 °C -19.2 °C 34645.6 hPa SE 7.7 km/h 28.5 km/h 80 % 0 mm 0 W/m2
20:25 -17.4 °C -19.2 °C 34645.6 hPa ESE 2.6 km/h 28.5 km/h 80 % 0 mm 0 W/m2
20:30 -17.4 °C -19.2 °C 34645.6 hPa SE 5.1 km/h 23.3 km/h 80 % 0 mm 0 W/m2
20:35 -17.5 °C -19.2 °C 34645.6 hPa ESE 12.9 km/h 23.3 km/h 80 % 0 mm 0 W/m2
20:40 -17.5 °C -19.2 °C 34645.6 hPa ENE 2.6 km/h 20.8 km/h 80 % 0 mm 0 W/m2
20:45 -17.5 °C -19.2 °C 34645.6 hPa ESE 7.7 km/h 20.8 km/h 80 % 0 mm 0 W/m2
20:50 -17.5 °C -19.2 °C 34645.6 hPa ENE 2.6 km/h 20.8 km/h 80 % 0 mm 0 W/m2
20:55 -17.6 °C -19.2 °C 34645.6 hPa East 7.7 km/h 20.8 km/h 80 % 0 mm 0 W/m2
21:00 -17.6 °C -19.1 °C 34645.6 hPa ESE 18.2 km/h 23.3 km/h 81 % 0 mm 0 W/m2
21:05 -17.6 °C -19.2 °C 34645.6 hPa ESE 12.9 km/h 23.3 km/h 81 % 0 mm 0 W/m2
21:10 -17.6 °C -19.2 °C 34645.6 hPa East 7.7 km/h 23.3 km/h 81 % 0 mm 0 W/m2
21:15 -17.6 °C -19.2 °C 34645.6 hPa East 15.6 km/h 23.3 km/h 81 % 0 mm 0 W/m2
21:20 -17.6 °C -19.2 °C 34645.6 hPa ESE 12.9 km/h 23.3 km/h 81 % 0 mm 0 W/m2
21:25 -17.7 °C -19.3 °C 34645.6 hPa East 12.9 km/h 20.8 km/h 81 % 0 mm 0 W/m2
21:30 -17.7 °C -19.3 °C 34645.6 hPa ESE 10.3 km/h 20.8 km/h 81 % 0 mm 0 W/m2
21:35 -17.7 °C -19.3 °C 34645.6 hPa ESE 18.2 km/h 23.3 km/h 81 % 0 mm 0 W/m2
21:40 -17.7 °C -19.2 °C 34645.6 hPa East 20.8 km/h 28.5 km/h 82 % 0 mm 0 W/m2
21:45 -17.7 °C -19.3 °C 34645.6 hPa SE 12.9 km/h 28.5 km/h 81 % 0 mm 0 W/m2
21:50 -17.7 °C -19.3 °C 34645.6 hPa ESE 5.1 km/h 23.3 km/h 81 % 0 mm 0 W/m2
21:55 -17.7 °C -19.3 °C 34645.6 hPa ESE 10.3 km/h 25.9 km/h 81 % 0 mm 0 W/m2
22:00 -17.7 °C -19.2 °C 34635.4 hPa SE 12.9 km/h 25.9 km/h 82 % 0 mm 0 W/m2
22:05 -17.7 °C -19.2 °C 34635.4 hPa ESE 7.7 km/h 25.9 km/h 82 % 0 mm 0 W/m2
22:10 -17.7 °C -19.2 °C 34635.4 hPa SE 10.3 km/h 25.9 km/h 82 % 0 mm 0 W/m2
22:15 -17.7 °C -19.2 °C 34635.4 hPa SE 7.7 km/h 20.8 km/h 82 % 0 mm 0 W/m2
22:20 -17.7 °C -19.2 °C 34635.4 hPa SE 5.1 km/h 23.3 km/h 82 % 0 mm 0 W/m2
22:25 -17.7 °C -19.3 °C 34635.4 hPa SSE 12.9 km/h 33.6 km/h 82 % 0 mm 0 W/m2
22:30 -17.8 °C -19.4 °C 34635.4 hPa ESE 20.8 km/h 33.6 km/h 81 % 0 mm 0 W/m2
22:35 -17.8 °C -19.4 °C 34635.4 hPa SE 12.9 km/h 31.1 km/h 81 % 0 mm 0 W/m2
22:40 -17.8 °C -19.4 °C 34635.4 hPa ESE 20.8 km/h 25.9 km/h 81 % 0 mm 0 W/m2
22:45 -17.8 °C -19.3 °C 34635.4 hPa ESE 12.9 km/h 20.8 km/h 82 % 0 mm 0 W/m2
22:50 -17.8 °C -19.3 °C 34625.2 hPa SE 12.9 km/h 23.3 km/h 82 % 0 mm 0 W/m2
22:55 -17.8 °C -19.3 °C 34635.4 hPa ESE 12.9 km/h 25.9 km/h 82 % 0 mm 0 W/m2
23:05 -17.8 °C -19.3 °C 34635.4 hPa SE 25.9 km/h 25.9 km/h 82 % 0 mm 0 W/m2
23:10 -17.8 °C -19.3 °C 34635.4 hPa SSE 7.7 km/h 25.9 km/h 83 % 0 mm 0 W/m2
23:15 -17.9 °C -19.4 °C 34635.4 hPa SE 10.3 km/h 25.9 km/h 82 % 0 mm 0 W/m2
23:20 -17.9 °C -19.4 °C 34635.4 hPa SE 5.1 km/h 25.9 km/h 82 % 0 mm 0 W/m2
23:25 -17.9 °C -19.4 °C 34625.2 hPa SE 10.3 km/h 25.9 km/h 82 % 0 mm 0 W/m2
23:30 -18 °C -19.5 °C 34625.2 hPa ESE 5.1 km/h 28.5 km/h 82 % 0 mm 0 W/m2
23:35 -18 °C -19.4 °C 34625.2 hPa SE 12.9 km/h 28.5 km/h 83 % 0 mm 0 W/m2
23:40 -18.1 °C -19.4 °C 34625.2 hPa SSE 23.3 km/h 25.9 km/h 83 % 0 mm 0 W/m2
23:45 -18.1 °C -19.6 °C 34625.2 hPa SE 10.3 km/h 25.9 km/h 82 % 0 mm 0 W/m2
23:50 -18.2 °C -19.7 °C 34625.2 hPa ESE 5.1 km/h 23.3 km/h 82 % 0 mm 0 W/m2
23:55 -18.2 °C -19.7 °C 34625.2 hPa ESE 10.3 km/h 23.3 km/h 82 % 0 mm 0 W/m2
Avec l'autorisation de Weather Underground - 1.75 mb